Walls, Mississippi
Current Conditions -  °F | °C
As of 3:54 AM on Monday 26 Jan 2015 (Local Time) from KMEM Reporting Station
Overcast Overcast  
Wind Chill: 31°   Ceiling: 2200
Heat Index: 40°   Visibility: 10mi
Dew Point: 31°   Wind: 16mph
Humidity: 70%   Direction: 340°NNW
Pressure: 30.02"   Gusts: 23mph
Location:  34.94°N, 90.09°W
Report Text: KMEM 260954Z 34014G20KT 10SM OVC022 04/M01 A3002 RMK AO2 SLP167 T00441006 $
Loading
Personal Weather Stations






























Interactive Weather Map New forecast layout! Learn more

10-Day Weather Forecast

Advertisements
Track Severe Weather on mobile